createdAt,value
2022-11-25T00:01:17.419Z,88690.56
2022-11-25T00:03:45.760Z,88696.75
2022-11-25T00:06:22.631Z,88689.94
2022-11-25T00:08:54.274Z,88699.06
2022-11-25T00:11:21.086Z,88692.16
2022-11-25T00:13:48.846Z,88710.19
2022-11-25T00:16:18.629Z,88704.78
2022-11-25T00:18:49.716Z,88701.69
2022-11-25T00:21:19.460Z,88693.28
2022-11-25T00:23:54.945Z,88702.03
2022-11-25T00:26:23.073Z,88692.19
2022-11-25T00:28:51.267Z,88698.56
2022-11-25T00:31:24.830Z,88703.63
2022-11-25T00:33:52.254Z,88708.56
2022-11-25T00:36:32.901Z,88702.75
2022-11-25T00:39:01.963Z,88706.75
2022-11-25T00:41:29.748Z,88696.50
2022-11-25T00:43:56.773Z,88701.91
2022-11-25T00:46:23.788Z,88682.28
2022-11-25T00:48:50.875Z,88691.56
2022-11-25T00:51:17.772Z,88711.50
2022-11-25T00:53:45.003Z,88689.94
2022-11-25T00:56:11.918Z,88693.78
2022-11-25T00:58:39.442Z,88699.06
2022-11-25T01:01:06.581Z,88697.50
2022-11-25T01:03:34.327Z,88695.91
2022-11-25T01:06:02.300Z,88693.84
2022-11-25T01:08:33.338Z,88703.81
2022-11-25T01:11:06.464Z,88685.16
2022-11-25T01:13:33.530Z,88693.41
2022-11-25T01:16:05.613Z,88696.28
2022-11-25T01:18:33.384Z,88695.66
2022-11-25T01:21:26.604Z,88696.97
2022-11-25T01:23:53.906Z,88694.06
2022-11-25T01:26:23.357Z,88702.13
2022-11-25T01:28:54.790Z,88710.56
2022-11-25T01:31:23.772Z,88689.16
2022-11-25T01:34:01.956Z,88696.63
2022-11-25T01:36:29.540Z,88695.50
2022-11-25T01:38:59.735Z,88699.47
2022-11-25T01:41:29.535Z,88692.75
2022-11-25T01:44:12.376Z,88694.97
2022-11-25T01:47:03.772Z,88690.50
2022-11-25T01:49:59.950Z,88695.38
2022-11-25T01:52:33.149Z,88690.22
2022-11-25T01:55:17.921Z,88690.94
2022-11-25T01:57:48.836Z,88695.91
2022-11-25T02:00:16.466Z,88693.25
2022-11-25T02:02:44.260Z,88688.53
2022-11-25T02:05:16.514Z,88704.56
2022-11-25T02:07:46.510Z,88699.84
2022-11-25T02:10:20.123Z,88688.41
2022-11-25T02:12:48.041Z,88685.88
2022-11-25T02:15:16.010Z,88694.16
2022-11-25T02:17:44.258Z,88690.56
2022-11-25T02:20:14.181Z,88687.22
2022-11-25T02:22:56.078Z,88686.28
2022-11-25T02:25:29.378Z,88692.53
2022-11-25T02:28:03.270Z,88694.06
2022-11-25T02:30:30.321Z,88692.91
2022-11-25T02:32:58.993Z,88699.19
2022-11-25T02:35:39.356Z,88694.91
2022-11-25T02:38:08.382Z,88696.34
2022-11-25T02:40:41.031Z,88692.78
2022-11-25T02:43:07.856Z,88706.28
2022-11-25T02:45:47.568Z,88702.25
2022-11-25T02:48:14.556Z,88695.72
2022-11-25T02:50:42.008Z,88700.56
2022-11-25T02:53:09.117Z,88699.09
2022-11-25T02:55:35.933Z,88716.09
2022-11-25T02:58:03.008Z,88705.19
2022-11-25T03:00:30.198Z,88719.41
2022-11-25T03:02:57.072Z,88712.72
2022-11-25T03:05:24.114Z,88708.44
2022-11-25T03:07:51.138Z,88714.41
2022-11-25T03:10:18.482Z,88718.34
2022-11-25T03:12:45.483Z,88712.81
2022-11-25T03:15:12.413Z,88709.72
2022-11-25T03:17:39.426Z,88710.28
2022-11-25T03:20:08.223Z,88702.13
2022-11-25T03:22:35.313Z,88711.56
2022-11-25T03:25:02.249Z,88706.41
2022-11-25T03:27:30.363Z,88712.06
2022-11-25T03:29:57.608Z,88719.56
2022-11-25T03:32:24.541Z,88705.97
2022-11-25T03:34:51.389Z,88709.06
2022-11-25T03:37:18.740Z,88716.28
2022-11-25T03:39:46.062Z,88705.16
2022-11-25T03:42:13.030Z,88710.69
2022-11-25T03:44:40.065Z,88725.44
2022-11-25T03:47:07.024Z,88724.00
2022-11-25T03:49:33.827Z,88720.44
2022-11-25T03:52:01.226Z,88723.63
2022-11-25T03:54:28.106Z,88724.06
2022-11-25T03:56:55.074Z,88726.00
2022-11-25T03:59:21.941Z,88738.28
2022-11-25T04:01:48.873Z,88741.16
2022-11-25T04:04:15.843Z,88730.63
2022-11-25T04:06:42.849Z,88732.81
2022-11-25T04:09:10.973Z,88735.25
2022-11-25T04:11:38.204Z,88730.19
2022-11-25T04:14:05.067Z,88735.56
2022-11-25T04:16:32.554Z,88733.69
2022-11-25T04:18:59.469Z,88736.94
2022-11-25T04:21:26.303Z,88746.28
2022-11-25T04:23:53.201Z,88745.13
2022-11-25T04:26:20.172Z,88737.94
2022-11-25T04:28:47.137Z,88748.69
2022-11-25T04:31:14.170Z,88760.56
2022-11-25T04:33:41.281Z,88752.19
2022-11-25T04:36:08.478Z,88761.16
2022-11-25T04:38:35.341Z,88754.22
2022-11-25T04:41:02.189Z,88760.31
2022-11-25T04:43:29.332Z,88767.72
2022-11-25T04:46:13.658Z,88768.16
2022-11-25T04:48:41.348Z,88760.25
2022-11-25T04:51:08.268Z,88760.84
2022-11-25T04:53:35.104Z,88757.25
2022-11-25T04:56:01.971Z,88757.91
2022-11-25T04:58:31.602Z,88771.66
2022-11-25T05:00:58.552Z,88770.25
2022-11-25T05:03:25.407Z,88783.28
2022-11-25T05:05:52.530Z,88781.56
2022-11-25T05:08:19.479Z,88787.19
2022-11-25T05:10:46.392Z,88778.06
2022-11-25T05:13:13.374Z,88777.56
2022-11-25T05:15:40.467Z,88778.13
2022-11-25T05:18:07.352Z,88788.84
2022-11-25T05:20:34.217Z,88791.56
2022-11-25T05:23:01.168Z,88790.97
2022-11-25T05:25:28.130Z,88793.03
2022-11-25T05:27:55.025Z,88794.53
2022-11-25T05:30:21.892Z,88809.16
2022-11-25T05:32:48.827Z,88812.44
2022-11-25T05:35:15.888Z,88808.75
2022-11-25T05:37:42.923Z,88813.97
2022-11-25T05:40:10.375Z,88826.66
2022-11-25T05:42:37.589Z,88829.06
2022-11-25T05:45:04.780Z,88832.44
2022-11-25T05:47:31.884Z,88831.84
2022-11-25T05:49:58.672Z,88834.09
2022-11-25T05:52:25.546Z,88832.28
2022-11-25T05:54:56.937Z,88832.06
2022-11-25T05:57:24.260Z,88844.22
2022-11-25T05:59:51.117Z,88837.19
2022-11-25T06:02:18.196Z,88845.88
2022-11-25T06:04:45.055Z,88850.63
2022-11-25T06:07:11.997Z,88847.69
2022-11-25T06:09:38.958Z,88849.34
2022-11-25T06:12:06.005Z,88856.41
2022-11-25T06:14:33.117Z,88851.22
2022-11-25T06:17:00.098Z,88869.81
2022-11-25T06:19:27.024Z,88873.53
2022-11-25T06:21:53.908Z,88863.63
2022-11-25T06:24:20.839Z,88877.16
2022-11-25T06:26:47.684Z,88871.59
2022-11-25T06:29:14.539Z,88870.31
2022-11-25T06:31:41.497Z,88888.72
2022-11-25T06:34:08.502Z,88886.16
2022-11-25T06:36:35.444Z,88876.97
2022-11-25T06:39:02.319Z,88898.34
2022-11-25T06:41:29.221Z,88883.38
2022-11-25T06:43:59.051Z,88889.13
2022-11-25T06:46:26.003Z,88897.34
2022-11-25T06:48:54.191Z,88897.81
2022-11-25T06:51:21.241Z,88889.00
2022-11-25T06:53:48.182Z,88888.34
2022-11-25T06:56:16.754Z,88885.03
2022-11-25T06:58:45.035Z,88882.78
2022-11-25T07:01:16.133Z,88888.59
2022-11-25T07:03:44.976Z,88887.88
2022-11-25T07:06:16.720Z,88890.59
2022-11-25T07:08:43.893Z,88900.41
2022-11-25T07:11:23.510Z,88903.16
2022-11-25T07:13:59.207Z,88903.16
2022-11-25T07:16:27.057Z,88907.53
2022-11-25T07:18:54.093Z,88905.81
2022-11-25T07:21:25.336Z,88910.72
2022-11-25T07:23:52.888Z,88900.78
2022-11-25T07:26:22.890Z,88899.03
2022-11-25T07:28:51.174Z,88899.63
2022-11-25T07:31:27.704Z,88897.75
2022-11-25T07:34:04.206Z,88893.53
2022-11-25T07:36:32.687Z,88885.84
2022-11-25T07:39:02.395Z,88881.16
2022-11-25T07:41:29.466Z,88889.69
2022-11-25T07:44:02.475Z,88885.59
2022-11-25T07:46:41.791Z,88890.19
2022-11-25T07:49:12.320Z,88904.22
2022-11-25T07:51:44.482Z,88905.47
2022-11-25T07:54:12.894Z,88899.44
2022-11-25T07:56:41.995Z,88901.84
2022-11-25T07:59:12.920Z,88899.47
2022-11-25T08:01:40.150Z,88897.06
2022-11-25T08:04:08.046Z,88896.56
2022-11-25T08:06:41.957Z,88889.09
2022-11-25T08:09:13.562Z,88896.59
2022-11-25T08:11:41.354Z,88893.19
2022-11-25T08:14:08.742Z,88898.75
2022-11-25T08:16:35.589Z,88902.16
2022-11-25T08:19:04.543Z,88901.22
2022-11-25T08:21:31.325Z,88907.97
2022-11-25T08:23:58.513Z,88893.41
2022-11-25T08:26:31.044Z,88897.56
2022-11-25T08:28:58.367Z,88889.09
2022-11-25T08:31:30.816Z,88877.50
2022-11-25T08:33:59.340Z,88879.66
2022-11-25T08:39:02.440Z,88885.97
2022-11-25T08:41:36.970Z,88875.56
2022-11-25T08:44:06.490Z,88875.78
2022-11-25T08:46:36.170Z,88870.72
2022-11-25T08:49:05.362Z,88879.88
2022-11-25T08:51:34.989Z,88864.16
2022-11-25T08:54:02.206Z,88866.06
2022-11-25T08:56:29.282Z,88875.50
2022-11-25T08:58:56.741Z,88874.28
2022-11-25T09:01:24.732Z,88869.66
2022-11-25T09:03:53.805Z,88872.78
2022-11-25T09:06:21.304Z,88867.25
2022-11-25T09:08:48.842Z,88874.22
2022-11-25T09:11:16.003Z,88865.56
2022-11-25T09:13:43.144Z,88873.78
2022-11-25T09:16:10.251Z,88879.16
2022-11-25T09:18:37.498Z,88867.53
2022-11-25T09:21:12.944Z,88870.94
2022-11-25T09:23:40.105Z,88853.28
2022-11-25T09:26:08.483Z,88855.44
2022-11-25T09:28:35.850Z,88849.03
2022-11-25T09:31:10.039Z,88851.47
2022-11-25T09:33:37.645Z,88843.00
2022-11-25T09:36:05.580Z,88841.81
2022-11-25T09:38:32.734Z,88841.63
2022-11-25T09:41:10.361Z,88841.13
2022-11-25T09:43:42.910Z,88838.97
2022-11-25T09:46:30.920Z,88841.63
2022-11-25T09:49:12.415Z,88850.88
2022-11-25T09:52:15.524Z,88849.19
2022-11-25T09:54:48.541Z,88856.91
2022-11-25T09:57:15.338Z,88860.53
2022-11-25T10:00:08.821Z,88858.59
2022-11-25T10:02:39.395Z,88856.41
2022-11-25T10:05:13.573Z,88866.53
2022-11-25T10:07:45.254Z,88867.06
2022-11-25T10:10:43.673Z,88869.44
2022-11-25T10:13:19.427Z,88875.97
2022-11-25T10:15:50.864Z,88875.72
2022-11-25T10:18:30.377Z,88878.81
2022-11-25T10:20:57.306Z,88883.91
2022-11-25T10:23:38.502Z,88877.16
2022-11-25T10:26:17.131Z,88870.06
2022-11-25T10:28:49.846Z,88866.38
2022-11-25T10:31:25.372Z,88856.69
2022-11-25T10:33:56.472Z,88862.06
2022-11-25T10:36:41.724Z,88862.59
2022-11-25T10:39:17.856Z,88860.19
2022-11-25T10:41:52.776Z,88862.88
2022-11-25T10:44:30.448Z,88858.09
2022-11-25T10:47:15.691Z,88858.34
2022-11-25T10:50:03.098Z,88863.88
2022-11-25T10:52:35.619Z,88867.00
2022-11-25T10:55:10.677Z,88858.78
2022-11-25T10:57:37.693Z,88870.63
2022-11-25T11:00:12.788Z,88867.94
2022-11-25T11:02:42.667Z,88869.13
2022-11-25T11:05:09.558Z,88870.56
2022-11-25T11:07:42.166Z,88867.41
2022-11-25T11:10:15.281Z,88867.41
2022-11-25T11:13:02.175Z,88870.94
2022-11-25T11:15:41.353Z,88873.31
2022-11-25T11:18:20.768Z,88869.59
2022-11-25T11:20:50.559Z,88852.91
2022-11-25T11:23:17.887Z,88863.66
2022-11-25T11:26:02.331Z,88872.75
2022-11-25T11:28:35.130Z,88875.72
2022-11-25T11:31:23.037Z,88874.75
2022-11-25T11:34:05.940Z,88874.50
2022-11-25T11:37:08.192Z,88868.28
2022-11-25T11:40:13.621Z,88874.25
2022-11-25T11:43:07.820Z,88878.47
2022-11-25T11:45:42.730Z,88880.09
2022-11-25T11:48:18.291Z,88881.56
2022-11-25T11:51:07.081Z,88885.09
2022-11-25T11:54:00.953Z,88897.63
2022-11-25T11:56:55.257Z,88887.91
2022-11-25T11:59:52.976Z,88892.00
2022-11-25T12:02:38.399Z,88888.41
2022-11-25T12:05:11.393Z,88898.09
2022-11-25T12:08:07.518Z,88904.13
2022-11-25T12:10:40.622Z,88904.91
2022-11-25T12:13:16.895Z,88908.31
2022-11-25T12:16:06.296Z,88908.56
2022-11-25T12:19:03.640Z,88905.47
2022-11-25T12:21:55.468Z,88900.34
2022-11-25T12:24:40.362Z,88902.31
2022-11-25T12:27:08.991Z,88904.59
2022-11-25T12:29:42.285Z,88902.91
2022-11-25T12:32:28.969Z,88907.31
2022-11-25T12:35:07.365Z,88906.16
2022-11-25T12:37:48.755Z,88905.63
2022-11-25T12:40:20.633Z,88910.84
2022-11-25T12:42:49.161Z,88906.00
2022-11-25T12:45:26.547Z,88901.34
2022-11-25T12:47:53.778Z,88897.97
2022-11-25T12:50:46.142Z,88906.50
2022-11-25T12:53:43.893Z,88896.09
2022-11-25T12:56:20.081Z,88907.47
2022-11-25T12:59:24.974Z,88907.16
2022-11-25T13:01:51.794Z,88918.00
2022-11-25T13:05:25.135Z,88923.25
2022-11-25T13:08:12.102Z,88921.06
2022-11-25T13:10:47.964Z,88918.88
2022-11-25T13:13:33.252Z,88926.38
2022-11-25T13:16:03.930Z,88924.69
2022-11-25T13:18:33.230Z,88931.81
2022-11-25T13:21:20.529Z,88922.41
2022-11-25T13:23:49.690Z,88935.94
2022-11-25T13:26:28.750Z,88936.28
2022-11-25T13:28:56.581Z,88949.44
2022-11-25T13:31:30.110Z,88940.19
2022-11-25T13:34:18.795Z,88937.03
2022-11-25T13:36:50.448Z,88932.94
2022-11-25T13:39:37.749Z,88930.16
2022-11-25T13:42:24.862Z,88941.41
2022-11-25T13:44:55.033Z,88946.72
2022-11-25T13:47:23.419Z,88947.91
2022-11-25T13:49:50.274Z,88951.97
2022-11-25T13:52:28.644Z,88942.81
2022-11-25T13:54:57.084Z,88952.09
2022-11-25T13:57:31.186Z,88960.50
2022-11-25T14:00:30.067Z,88951.94
2022-11-25T14:03:19.561Z,88944.22
2022-11-25T14:05:50.777Z,88955.59
2022-11-25T14:08:29.733Z,88955.78
2022-11-25T14:11:03.260Z,88948.38
2022-11-25T14:13:44.653Z,88968.84
2022-11-25T14:16:42.840Z,88960.09
2022-11-25T14:22:48.792Z,88971.41
2022-11-25T14:25:23.063Z,88975.03
2022-11-25T14:28:03.492Z,88966.75
2022-11-25T14:30:31.702Z,88973.97
2022-11-25T14:33:11.679Z,88975.72
2022-11-25T14:35:48.407Z,88983.41
2022-11-25T14:38:20.711Z,88986.44
2022-11-25T14:40:55.538Z,88978.66
2022-11-25T14:43:24.797Z,88979.50
2022-11-25T14:46:13.354Z,88940.81
2022-11-25T14:48:40.221Z,88971.31
2022-11-25T14:51:11.389Z,88962.38
2022-11-25T14:53:47.837Z,88965.31
2022-11-25T14:56:21.941Z,88982.47
2022-11-25T14:58:51.230Z,88975.53
2022-11-25T15:01:51.679Z,88978.16
2022-11-25T15:04:24.007Z,88971.88
2022-11-25T15:06:56.843Z,88980.84
2022-11-25T15:09:28.333Z,88981.59
2022-11-25T15:11:58.282Z,88984.22
2022-11-25T15:14:28.217Z,89001.47
2022-11-25T15:16:57.609Z,88981.38
2022-11-25T15:19:33.778Z,88993.63
2022-11-25T15:22:22.349Z,88969.34
2022-11-25T15:24:55.847Z,88984.13
2022-11-25T15:27:26.189Z,88984.69
2022-11-25T15:29:54.219Z,88968.94
2022-11-25T15:32:33.062Z,89014.97
2022-11-25T15:35:02.227Z,88993.25
2022-11-25T15:37:30.038Z,89010.78
2022-11-25T15:40:30.054Z,88987.25
2022-11-25T15:43:06.315Z,88979.97
2022-11-25T15:45:44.734Z,88992.28
2022-11-25T15:48:28.999Z,88993.66
2022-11-25T15:51:15.976Z,88980.59
2022-11-25T15:54:07.035Z,88985.06
2022-11-25T15:56:38.163Z,89008.13
2022-11-25T15:59:05.135Z,88996.38
2022-11-25T16:01:34.863Z,89006.75
2022-11-25T16:04:19.776Z,89016.72
2022-11-25T16:06:55.945Z,89031.66
2022-11-25T16:09:24.959Z,89012.03
2022-11-25T16:11:51.872Z,89039.03
2022-11-25T16:14:25.899Z,89045.78
2022-11-25T16:17:01.836Z,89040.66
2022-11-25T16:19:49.064Z,89031.13
2022-11-25T16:22:19.180Z,89044.16
2022-11-25T16:24:58.939Z,89052.34
2022-11-25T16:27:29.828Z,89056.38
2022-11-25T16:30:05.936Z,89063.28
2022-11-25T16:32:33.476Z,89057.25
2022-11-25T16:35:20.860Z,89058.81
2022-11-25T16:37:49.467Z,89058.16
2022-11-25T16:40:18.953Z,89072.56
2022-11-25T16:42:50.313Z,89059.34
2022-11-25T16:45:23.758Z,89065.56
2022-11-25T16:47:54.160Z,89072.31
2022-11-25T16:50:21.458Z,89084.59
2022-11-25T16:52:48.205Z,89066.94
2022-11-25T16:55:15.325Z,89064.25
2022-11-25T16:57:43.285Z,89068.19
2022-11-25T17:00:16.407Z,89083.41
2022-11-25T17:02:45.742Z,89088.09
2022-11-25T17:05:19.469Z,89087.00
2022-11-25T17:07:46.996Z,89063.28
2022-11-25T17:10:14.084Z,89079.78
2022-11-25T17:12:43.400Z,89084.06
2022-11-25T17:15:35.492Z,89084.16
2022-11-25T17:18:06.853Z,89080.22
2022-11-25T17:20:33.834Z,89083.59
2022-11-25T17:23:00.603Z,89078.47
2022-11-25T17:25:32.279Z,89090.41
2022-11-25T17:28:02.349Z,89085.88
2022-11-25T17:30:29.716Z,89079.44
2022-11-25T17:33:01.151Z,89098.84
2022-11-25T17:35:28.061Z,89092.25
2022-11-25T17:37:56.876Z,89092.44
2022-11-25T17:40:23.956Z,89098.00
2022-11-25T17:42:51.055Z,89095.25
2022-11-25T17:45:20.676Z,89097.06
2022-11-25T17:47:47.996Z,89100.69
2022-11-25T17:50:25.919Z,89087.78
2022-11-25T17:52:53.055Z,89084.47
2022-11-25T17:55:20.838Z,89097.88
2022-11-25T17:57:48.937Z,89105.72
2022-11-25T18:00:19.768Z,89105.25
2022-11-25T18:02:46.923Z,89111.00
2022-11-25T18:05:15.441Z,89101.88
2022-11-25T18:07:43.736Z,89098.97
2022-11-25T18:10:13.392Z,89099.69
2022-11-25T18:12:40.914Z,89096.31
2022-11-25T18:15:14.403Z,89116.38
2022-11-25T18:17:41.507Z,89108.34
2022-11-25T18:20:16.681Z,89114.38
2022-11-25T18:22:45.439Z,89110.66
2022-11-25T18:25:17.708Z,89108.03
2022-11-25T18:27:45.931Z,89118.13
2022-11-25T18:30:21.902Z,89119.13
2022-11-25T18:32:49.063Z,89117.84
2022-11-25T18:35:19.457Z,89112.47
2022-11-25T18:37:46.289Z,89125.84
2022-11-25T18:40:13.940Z,89118.34
2022-11-25T18:42:45.444Z,89124.66
2022-11-25T18:45:22.095Z,89120.56
2022-11-25T18:47:49.598Z,89117.75
2022-11-25T18:50:25.458Z,89130.78
2022-11-25T18:52:54.070Z,89109.81
2022-11-25T18:55:23.238Z,89127.91
2022-11-25T18:57:52.156Z,89121.91
2022-11-25T19:00:32.336Z,89134.56
2022-11-25T19:02:59.922Z,89135.97
2022-11-25T19:05:31.042Z,89143.56
2022-11-25T19:07:57.875Z,89143.75
2022-11-25T19:10:28.553Z,89150.63
2022-11-25T19:13:03.058Z,89155.00
2022-11-25T19:15:29.915Z,89165.56
2022-11-25T19:18:10.155Z,89161.41
2022-11-25T19:20:37.013Z,89158.16
2022-11-25T19:23:18.767Z,89164.91
2022-11-25T19:25:48.280Z,89160.34
2022-11-25T19:28:18.324Z,89174.16
2022-11-25T19:30:47.538Z,89174.88
2022-11-25T19:33:33.150Z,89174.81
2022-11-25T19:36:00.131Z,89181.56
2022-11-25T19:38:29.784Z,89177.19
2022-11-25T19:40:57.411Z,89187.47
2022-11-25T19:43:25.706Z,89184.84
2022-11-25T19:45:53.783Z,89189.06
2022-11-25T19:48:22.090Z,89196.16
2022-11-25T19:50:51.680Z,89195.09
2022-11-25T19:53:20.801Z,89197.31
2022-11-25T19:55:48.652Z,89196.88
2022-11-25T19:58:16.034Z,89202.75
2022-11-25T20:00:44.460Z,89209.88
2022-11-25T20:03:24.438Z,89211.06
2022-11-25T20:05:53.340Z,89211.00
2022-11-25T20:08:26.031Z,89215.22
2022-11-25T20:10:53.398Z,89211.38
2022-11-25T20:13:20.441Z,89220.53
2022-11-25T20:15:47.465Z,89217.75
2022-11-25T20:18:22.112Z,89213.88
2022-11-25T20:20:52.489Z,89202.41
2022-11-25T20:23:27.561Z,89215.31
2022-11-25T20:25:54.923Z,89210.34
2022-11-25T20:28:27.431Z,89215.94
2022-11-25T20:30:54.577Z,89214.78
2022-11-25T20:33:24.703Z,89206.75
2022-11-25T20:35:58.093Z,89230.94
2022-11-25T20:38:27.923Z,89196.34
2022-11-25T20:40:58.114Z,89205.75
2022-11-25T20:43:35.489Z,89198.69
2022-11-25T20:46:03.110Z,89220.25
2022-11-25T20:48:33.093Z,89222.19
2022-11-25T20:51:00.986Z,89227.44
2022-11-25T20:53:28.447Z,89229.75
2022-11-25T20:55:55.286Z,89227.72
2022-11-25T20:58:30.713Z,89236.06
2022-11-25T21:00:58.449Z,89219.50
2022-11-25T21:03:26.168Z,89232.56
2022-11-25T21:05:54.266Z,89234.91
2022-11-25T21:08:24.187Z,89211.91
2022-11-25T21:10:54.040Z,89233.59
2022-11-25T21:13:24.178Z,89234.94
2022-11-25T21:15:51.606Z,89232.13
2022-11-25T21:18:18.878Z,89228.50
2022-11-25T21:20:46.499Z,89242.13
2022-11-25T21:23:20.251Z,89253.25
2022-11-25T21:25:48.790Z,89257.38
2022-11-25T21:28:19.121Z,89252.97
2022-11-25T21:30:46.054Z,89252.09
2022-11-25T21:33:13.239Z,89251.22
2022-11-25T21:35:42.338Z,89260.59
2022-11-25T21:38:17.081Z,89251.94
2022-11-25T21:40:58.256Z,89252.22
2022-11-25T21:43:30.473Z,89231.09
2022-11-25T21:46:02.203Z,89259.72
2022-11-25T21:48:30.199Z,89258.25
2022-11-25T21:50:57.667Z,89265.59
2022-11-25T21:53:24.905Z,89265.28
2022-11-25T21:55:52.169Z,89267.34
2022-11-25T21:58:26.523Z,89266.47
2022-11-25T22:01:01.756Z,89271.59
2022-11-25T22:03:31.183Z,89277.91
2022-11-25T22:05:58.219Z,89287.84
2022-11-25T22:08:25.036Z,89278.03
2022-11-25T22:10:54.896Z,89288.16
2022-11-25T22:13:27.633Z,89284.63
2022-11-25T22:15:57.690Z,89285.19
2022-11-25T22:18:36.186Z,89299.28
2022-11-25T22:21:03.539Z,89285.81
2022-11-25T22:23:30.312Z,89304.28
2022-11-25T22:25:57.847Z,89295.31
2022-11-25T22:28:28.323Z,89303.97
2022-11-25T22:30:57.216Z,89306.91
2022-11-25T22:33:31.291Z,89301.31
2022-11-25T22:35:58.273Z,89304.53
2022-11-25T22:38:25.160Z,89303.25
2022-11-25T22:40:58.978Z,89309.81
2022-11-25T22:43:40.845Z,89306.16
2022-11-25T22:46:07.869Z,89312.63
2022-11-25T22:48:37.352Z,89306.03
2022-11-25T22:51:05.912Z,89303.69
2022-11-25T22:53:32.864Z,89312.03
2022-11-25T22:55:59.707Z,89309.13
2022-11-25T22:58:27.421Z,89308.66
2022-11-25T23:00:56.089Z,89312.34
2022-11-25T23:03:27.045Z,89311.31
2022-11-25T23:05:54.381Z,89300.31
2022-11-25T23:08:29.914Z,89308.84
2022-11-25T23:10:57.667Z,89314.25
2022-11-25T23:13:24.934Z,89321.28
2022-11-25T23:16:00.164Z,89316.59
2022-11-25T23:18:38.384Z,89321.88
2022-11-25T23:21:22.232Z,89316.16
2022-11-25T23:23:49.820Z,89322.88
2022-11-25T23:26:16.736Z,89324.94
2022-11-25T23:28:43.605Z,89323.50
2022-11-25T23:31:16.474Z,89322.75
2022-11-25T23:33:49.770Z,89330.38
2022-11-25T23:36:29.723Z,89343.13
2022-11-25T23:39:02.105Z,89341.22
2022-11-25T23:41:31.959Z,89337.66
2022-11-25T23:44:06.108Z,89342.38
2022-11-25T23:46:34.722Z,89337.22
2022-11-25T23:49:04.398Z,89343.81
2022-11-25T23:51:31.379Z,89349.66
2022-11-25T23:53:59.135Z,89344.94
2022-11-25T23:56:27.470Z,89351.41
2022-11-25T23:58:54.458Z,89349.78
